createdAt,value
2023-04-07T00:01:37.483Z,98340.56
2023-04-07T00:04:04.165Z,98336.56
2023-04-07T00:06:30.820Z,98333.34
2023-04-07T00:08:57.214Z,98332.06
2023-04-07T00:11:23.557Z,98334.72
2023-04-07T00:13:49.897Z,98329.41
2023-04-07T00:16:16.279Z,98328.94
2023-04-07T00:18:42.660Z,98323.38
2023-04-07T00:21:08.994Z,98313.75
2023-04-07T00:23:35.307Z,98314.84
2023-04-07T00:26:01.974Z,98306.03
2023-04-07T00:28:28.297Z,98315.38
2023-04-07T00:30:54.685Z,98314.06
2023-04-07T00:33:21.176Z,98317.03
2023-04-07T00:35:47.542Z,98323.75
2023-04-07T00:38:13.879Z,98320.53
2023-04-07T00:40:40.244Z,98321.91
2023-04-07T00:43:06.659Z,98320.56
2023-04-07T00:45:33.049Z,98311.25
2023-04-07T00:47:59.417Z,98312.88
2023-04-07T00:50:25.796Z,98314.22
2023-04-07T00:52:52.150Z,98313.72
2023-04-07T00:55:18.500Z,98313.16
2023-04-07T00:57:46.605Z,98313.75
2023-04-07T01:00:13.054Z,98308.44
2023-04-07T01:02:43.530Z,98303.63
2023-04-07T01:05:15.740Z,98299.88
2023-04-07T01:07:53.717Z,98306.31
2023-04-07T01:10:35.320Z,98309.81
2023-04-07T01:13:03.103Z,98310.34
2023-04-07T01:15:30.144Z,98302.91
2023-04-07T01:18:00.889Z,98310.66
2023-04-07T01:20:27.422Z,98301.31
2023-04-07T01:22:54.539Z,98302.13
2023-04-07T01:25:33.001Z,98297.06
2023-04-07T01:28:03.260Z,98301.66
2023-04-07T01:30:30.344Z,98309.41
2023-04-07T01:32:56.681Z,98298.75
2023-04-07T01:35:23.097Z,98301.94
2023-04-07T01:37:50.384Z,98294.75
2023-04-07T01:40:16.718Z,98289.97
2023-04-07T01:42:43.043Z,98293.69
2023-04-07T01:45:09.467Z,98296.66
2023-04-07T01:47:37.417Z,98290.25
2023-04-07T01:50:07.124Z,98287.59
2023-04-07T01:52:33.434Z,98294.56
2023-04-07T01:54:59.763Z,98296.72
2023-04-07T01:57:26.095Z,98294.59
2023-04-07T01:59:53.060Z,98288.97
2023-04-07T02:02:19.449Z,98289.25
2023-04-07T02:04:46.053Z,98296.97
2023-04-07T02:07:15.730Z,98289.78
2023-04-07T02:09:42.080Z,98292.19
2023-04-07T02:12:08.414Z,98289.78
2023-04-07T02:14:35.292Z,98286.59
2023-04-07T02:17:01.725Z,98285.00
2023-04-07T02:19:28.052Z,98287.66
2023-04-07T02:21:55.184Z,98286.88
2023-04-07T02:24:24.520Z,98289.28
2023-04-07T02:26:51.104Z,98284.22
2023-04-07T02:29:17.440Z,98286.63
2023-04-07T02:31:43.900Z,98297.84
2023-04-07T02:34:10.389Z,98296.25
2023-04-07T02:36:36.733Z,98291.44
2023-04-07T02:39:03.686Z,98302.91
2023-04-07T02:41:30.021Z,98302.41
2023-04-07T02:43:56.597Z,98304.53
2023-04-07T02:46:23.182Z,98301.34
2023-04-07T02:48:49.512Z,98303.22
2023-04-07T02:51:15.858Z,98299.75
2023-04-07T02:53:42.421Z,98299.75
2023-04-07T02:56:08.723Z,98298.94
2023-04-07T02:58:35.030Z,98298.16
2023-04-07T03:01:01.397Z,98296.53
2023-04-07T03:03:27.815Z,98293.06
2023-04-07T03:05:54.345Z,98292.00
2023-04-07T03:08:20.661Z,98293.09
2023-04-07T03:10:47.533Z,98290.69
2023-04-07T03:13:16.536Z,98297.34
2023-04-07T03:15:43.368Z,98302.44
2023-04-07T03:18:09.732Z,98298.94
2023-04-07T03:20:36.427Z,98293.09
2023-04-07T03:23:02.886Z,98292.59
2023-04-07T03:25:29.478Z,98293.63
2023-04-07T03:27:55.903Z,98291.22
2023-04-07T03:30:22.237Z,98290.72
2023-04-07T03:32:48.616Z,98293.63
2023-04-07T03:35:14.972Z,98286.69
2023-04-07T03:37:41.296Z,98286.19
2023-04-07T03:40:07.868Z,98282.16
2023-04-07T03:42:34.192Z,98287.78
2023-04-07T03:45:00.757Z,98289.91
2023-04-07T03:47:27.180Z,98285.38
2023-04-07T03:49:53.540Z,98285.91
2023-04-07T03:52:19.853Z,98288.03
2023-04-07T03:54:46.275Z,98284.56
2023-04-07T03:57:12.643Z,98285.09
2023-04-07T03:59:38.969Z,98287.22
2023-04-07T04:02:05.418Z,98285.63
2023-04-07T04:04:31.814Z,98284.31
2023-04-07T04:06:58.172Z,98293.91
2023-04-07T04:09:24.625Z,98291.53
2023-04-07T04:11:51.049Z,98284.03
2023-04-07T04:14:17.411Z,98293.88
2023-04-07T04:16:43.738Z,98296.00
2023-04-07T04:19:10.214Z,98298.16
2023-04-07T04:21:36.548Z,98290.44
2023-04-07T04:24:03.499Z,98298.44
2023-04-07T04:26:30.151Z,98290.16
2023-04-07T04:28:56.490Z,98292.03
2023-04-07T04:31:22.899Z,98292.28
2023-04-07T04:33:49.252Z,98294.41
2023-04-07T04:36:15.916Z,98299.75
2023-04-07T04:38:42.285Z,98289.38
2023-04-07T04:41:08.650Z,98300.03
2023-04-07T04:43:35.382Z,98300.28
2023-04-07T04:46:01.708Z,98305.09
2023-04-07T04:48:28.276Z,98307.75
2023-04-07T04:50:54.602Z,98306.97
2023-04-07T04:53:21.155Z,98302.41
2023-04-07T04:55:52.036Z,98308.28
2023-04-07T04:58:18.968Z,98316.28
2023-04-07T05:00:45.453Z,98312.00
2023-04-07T05:03:12.110Z,98308.81
2023-04-07T05:05:38.826Z,98312.00
2023-04-07T05:08:05.448Z,98307.75
2023-04-07T05:10:31.760Z,98315.19
2023-04-07T05:12:58.107Z,98313.59
2023-04-07T05:15:24.432Z,98308.78
2023-04-07T05:17:50.902Z,98320.81
2023-04-07T05:20:17.805Z,98318.66
2023-04-07T05:22:44.123Z,98319.50
2023-04-07T05:25:10.788Z,98320.28
2023-04-07T05:27:37.124Z,98321.31
2023-04-07T05:30:03.800Z,98322.94
2023-04-07T05:32:30.412Z,98323.75
2023-04-07T05:34:56.864Z,98337.09
2023-04-07T05:37:23.182Z,98324.53
2023-04-07T05:39:49.528Z,98336.81
2023-04-07T05:42:15.902Z,98325.88
2023-04-07T05:44:42.221Z,98327.50
2023-04-07T05:47:09.172Z,98329.09
2023-04-07T05:49:35.778Z,98325.34
2023-04-07T05:52:03.501Z,98337.09
2023-04-07T05:54:29.912Z,98333.91
2023-04-07T05:56:56.408Z,98327.78
2023-04-07T05:59:22.754Z,98340.56
2023-04-07T06:01:49.228Z,98329.63
2023-04-07T06:04:15.598Z,98331.78
2023-04-07T06:06:42.155Z,98329.66
2023-04-07T06:09:08.516Z,98338.75
2023-04-07T06:11:34.838Z,98339.25
2023-04-07T06:14:01.176Z,98344.59
2023-04-07T06:16:27.591Z,98344.06
2023-04-07T06:18:53.928Z,98356.34
2023-04-07T06:21:20.257Z,98354.19
2023-04-07T06:23:47.294Z,98359.00
2023-04-07T06:26:13.911Z,98349.41
2023-04-07T06:28:40.362Z,98355.81
2023-04-07T06:31:07.182Z,98355.25
2023-04-07T06:33:33.574Z,98358.47
2023-04-07T06:35:59.883Z,98358.97
2023-04-07T06:38:26.441Z,98364.88
2023-04-07T06:40:52.794Z,98358.75
2023-04-07T06:43:19.118Z,98368.34
2023-04-07T06:45:45.534Z,98362.97
2023-04-07T06:48:11.965Z,98366.44
2023-04-07T06:50:41.155Z,98373.38
2023-04-07T06:53:07.534Z,98381.38
2023-04-07T06:55:33.871Z,98375.50
2023-04-07T06:58:00.217Z,98374.44
2023-04-07T07:00:30.087Z,98384.06
2023-04-07T07:02:57.034Z,98379.50
2023-04-07T07:05:23.510Z,98385.41
2023-04-07T07:07:50.278Z,98383.50
2023-04-07T07:10:16.690Z,98382.72
2023-04-07T07:12:43.009Z,98382.47
2023-04-07T07:15:09.443Z,98383.78
2023-04-07T07:17:36.034Z,98379.78
2023-04-07T07:20:02.378Z,98390.19
2023-04-07T07:22:28.706Z,98394.19
2023-04-07T07:24:55.017Z,98391.78
2023-04-07T07:27:21.330Z,98389.91
2023-04-07T07:29:47.646Z,98394.19
2023-04-07T07:32:13.977Z,98402.47
2023-04-07T07:34:40.324Z,98400.63
2023-04-07T07:37:06.693Z,98401.16
2023-04-07T07:39:32.998Z,98404.34
2023-04-07T07:41:59.548Z,98407.28
2023-04-07T07:44:25.931Z,98405.44
2023-04-07T07:46:52.338Z,98408.63
2023-04-07T07:49:18.676Z,98412.09
2023-04-07T07:51:46.688Z,98411.28
2023-04-07T07:54:13.070Z,98416.91
2023-04-07T07:56:39.556Z,98417.16
2023-04-07T07:59:09.134Z,98415.81
2023-04-07T08:01:35.800Z,98414.00
2023-04-07T08:04:02.440Z,98411.84
2023-04-07T08:06:29.284Z,98415.84
2023-04-07T08:08:55.960Z,98417.97
2023-04-07T08:11:23.093Z,98418.78
2023-04-07T08:13:49.696Z,98420.38
2023-04-07T08:16:16.282Z,98420.66
2023-04-07T08:18:42.603Z,98417.72
2023-04-07T08:21:09.005Z,98419.84
2023-04-07T08:23:35.331Z,98412.59
2023-04-07T08:26:01.662Z,98416.91
2023-04-07T08:28:28.068Z,98427.25
2023-04-07T08:30:54.381Z,98425.69
2023-04-07T08:33:20.800Z,98433.66
2023-04-07T08:35:47.646Z,98430.72
2023-04-07T08:38:14.013Z,98436.34
2023-04-07T08:40:40.343Z,98439.16
2023-04-07T08:43:08.294Z,98436.72
2023-04-07T08:45:34.623Z,98430.63
2023-04-07T08:48:00.969Z,98438.38
2023-04-07T08:50:28.156Z,98430.16
2023-04-07T08:52:55.052Z,98453.13
2023-04-07T08:55:21.381Z,98447.03
2023-04-07T08:57:47.753Z,98445.63
2023-04-07T09:00:14.149Z,98446.16
2023-04-07T09:02:41.579Z,98444.56
2023-04-07T09:05:08.344Z,98448.59
2023-04-07T09:07:35.693Z,98444.91
2023-04-07T09:10:02.070Z,98452.63
2023-04-07T09:12:28.549Z,98449.44
2023-04-07T09:14:54.873Z,98450.22
2023-04-07T09:17:21.453Z,98436.84
2023-04-07T09:19:47.972Z,98455.56
2023-04-07T09:22:14.449Z,98454.47
2023-04-07T09:24:41.028Z,98449.13
2023-04-07T09:27:17.634Z,98453.63
2023-04-07T09:29:44.628Z,98448.03
2023-04-07T09:32:11.243Z,98458.25
2023-04-07T09:34:40.363Z,98453.72
2023-04-07T09:37:08.280Z,98463.03
2023-04-07T09:39:34.636Z,98457.44
2023-04-07T09:42:02.276Z,98459.84
2023-04-07T09:44:28.590Z,98460.09
2023-04-07T09:46:58.600Z,98454.78
2023-04-07T09:49:25.193Z,98448.66
2023-04-07T09:52:04.846Z,98450.25
2023-04-07T09:54:37.460Z,98461.19
2023-04-07T09:57:04.338Z,98456.38
2023-04-07T09:59:31.253Z,98459.25
2023-04-07T10:01:57.829Z,98449.94
2023-04-07T10:04:24.489Z,98448.59
2023-04-07T10:06:50.978Z,98439.78
2023-04-07T10:09:17.935Z,98452.38
2023-04-07T10:11:44.294Z,98452.63
2023-04-07T10:14:10.709Z,98448.94
2023-04-07T10:16:37.690Z,98437.69
2023-04-07T10:19:04.087Z,98450.78
2023-04-07T10:21:32.820Z,98442.00
2023-04-07T10:23:59.988Z,98458.25
2023-04-07T10:26:26.783Z,98454.78
2023-04-07T10:28:54.019Z,98445.19
2023-04-07T10:31:20.557Z,98460.41
2023-04-07T10:33:48.110Z,98461.72
2023-04-07T10:36:14.806Z,98455.56
2023-04-07T10:38:42.536Z,98464.13
2023-04-07T10:41:27.682Z,98458.00
2023-04-07T10:43:54.006Z,98468.41
2023-04-07T10:46:20.381Z,98461.19
2023-04-07T10:49:06.630Z,98458.78
2023-04-07T10:51:32.931Z,98458.25
2023-04-07T10:54:14.945Z,98465.22
2023-04-07T10:56:59.775Z,98471.06
2023-04-07T10:59:27.905Z,98468.91
2023-04-07T11:02:12.810Z,98473.16
2023-04-07T11:04:39.580Z,98476.38
2023-04-07T11:07:05.975Z,98475.81
2023-04-07T11:09:32.298Z,98476.63
2023-04-07T11:11:58.604Z,98481.16
2023-04-07T11:14:31.677Z,98474.69
2023-04-07T11:16:58.190Z,98477.34
2023-04-07T11:19:24.557Z,98478.44
2023-04-07T11:21:51.139Z,98469.66
2023-04-07T11:24:32.948Z,98473.63
2023-04-07T11:26:59.319Z,98470.16
2023-04-07T11:29:29.306Z,98472.59
2023-04-07T11:31:55.755Z,98467.81
2023-04-07T11:34:22.208Z,98476.38
2023-04-07T11:36:48.536Z,98476.06
2023-04-07T11:39:27.804Z,98475.28
2023-04-07T11:41:54.172Z,98472.34
2023-04-07T11:44:20.585Z,98466.25
2023-04-07T11:46:56.672Z,98464.94
2023-04-07T11:49:26.111Z,98472.91
2023-04-07T11:52:02.776Z,98475.78
2023-04-07T11:54:41.785Z,98471.25
2023-04-07T11:57:10.369Z,98474.22
2023-04-07T11:59:37.039Z,98465.72
2023-04-07T12:02:04.077Z,98464.13
2023-04-07T12:04:31.252Z,98470.97
2023-04-07T12:07:06.763Z,98479.00
2023-04-07T12:09:36.044Z,98479.50
2023-04-07T12:12:02.623Z,98469.38
2023-04-07T12:14:29.055Z,98468.91
2023-04-07T12:16:58.927Z,98478.25
2023-04-07T12:19:25.906Z,98473.44
2023-04-07T12:21:52.241Z,98473.28
2023-04-07T12:24:18.580Z,98478.50
2023-04-07T12:26:44.891Z,98474.16
2023-04-07T12:29:11.257Z,98472.78
2023-04-07T12:31:37.611Z,98462.84
2023-04-07T12:34:04.235Z,98468.84
2023-04-07T12:36:30.541Z,98476.13
2023-04-07T12:38:56.876Z,98477.19
2023-04-07T12:41:23.890Z,98481.22
2023-04-07T12:43:50.367Z,98478.81
2023-04-07T12:46:17.036Z,98481.75
2023-04-07T12:48:43.887Z,98474.19
2023-04-07T12:51:10.417Z,98481.41
2023-04-07T12:53:36.801Z,98482.75
2023-04-07T12:56:03.314Z,98479.59
2023-04-07T12:58:29.655Z,98477.19
2023-04-07T13:00:56.766Z,98476.91
2023-04-07T13:03:23.216Z,98475.84
2023-04-07T13:05:50.146Z,98476.13
2023-04-07T13:08:16.486Z,98473.75
2023-04-07T13:10:42.816Z,98474.81
2023-04-07T13:13:09.128Z,98473.19
2023-04-07T13:15:36.089Z,98466.22
2023-04-07T13:18:02.555Z,98473.44
2023-04-07T13:20:30.297Z,98470.78
2023-04-07T13:25:27.293Z,98471.06
2023-04-07T13:27:53.607Z,98473.44
2023-04-07T13:30:21.519Z,98476.38
2023-04-07T13:32:49.176Z,98467.59
2023-04-07T13:35:20.337Z,98473.44
2023-04-07T13:37:46.673Z,98471.84
2023-04-07T13:40:13.083Z,98476.63
2023-04-07T13:42:39.552Z,98477.47
2023-04-07T13:45:06.185Z,98478.72
2023-04-07T13:47:34.373Z,98473.97
2023-04-07T13:50:01.214Z,98478.00
2023-04-07T13:52:27.528Z,98483.59
2023-04-07T13:54:53.873Z,98488.66
2023-04-07T13:57:22.968Z,98487.31
2023-04-07T13:59:52.016Z,98484.63
2023-04-07T14:02:19.506Z,98488.66
2023-04-07T14:04:46.148Z,98478.78
2023-04-07T14:07:12.470Z,98476.91
2023-04-07T14:09:40.824Z,98472.66
2023-04-07T14:12:07.140Z,98480.94
2023-04-07T14:14:33.498Z,98476.41
2023-04-07T14:16:59.987Z,98469.47
2023-04-07T14:19:26.332Z,98476.13
2023-04-07T14:21:52.631Z,98482.25
2023-04-07T14:24:18.960Z,98480.13
2023-04-07T14:26:45.456Z,98484.09
2023-04-07T14:29:12.157Z,98482.78
2023-04-07T14:31:38.527Z,98488.66
2023-04-07T14:34:04.982Z,98484.59
2023-04-07T14:36:31.362Z,98482.47
2023-04-07T14:38:58.231Z,98480.09
2023-04-07T14:41:24.573Z,98480.34
2023-04-07T14:43:56.057Z,98480.84
2023-04-07T14:46:23.318Z,98487.25
2023-04-07T14:48:51.903Z,98489.91
2023-04-07T14:51:18.225Z,98487.50
2023-04-07T14:53:45.741Z,98492.56
2023-04-07T14:56:12.577Z,98491.72
2023-04-07T14:58:40.403Z,98498.16
2023-04-07T15:01:06.863Z,98500.75
2023-04-07T15:03:34.868Z,98494.13
2023-04-07T15:06:01.395Z,98494.75
2023-04-07T15:08:27.723Z,98493.63
2023-04-07T15:10:54.079Z,98508.78
2023-04-07T15:13:20.723Z,98501.56
2023-04-07T15:15:47.066Z,98504.97
2023-04-07T15:18:13.704Z,98511.78
2023-04-07T15:20:40.080Z,98506.66
2023-04-07T15:23:06.450Z,98514.16
2023-04-07T15:25:32.765Z,98512.38
2023-04-07T15:27:59.087Z,98514.09
2023-04-07T15:30:25.429Z,98516.13
2023-04-07T15:33:01.391Z,98522.19
2023-04-07T15:35:27.810Z,98512.78
2023-04-07T15:37:54.160Z,98515.22
2023-04-07T15:40:20.707Z,98526.47
2023-04-07T15:42:47.266Z,98531.47
2023-04-07T15:45:13.630Z,98524.06
2023-04-07T15:47:40.017Z,98526.56
2023-04-07T15:50:06.780Z,98527.44
2023-04-07T15:52:33.172Z,98530.03
2023-04-07T15:54:59.496Z,98525.31
2023-04-07T15:57:25.810Z,98530.31
2023-04-07T15:59:52.342Z,98534.44
2023-04-07T16:02:18.793Z,98534.59
2023-04-07T16:04:47.342Z,98538.78
2023-04-07T16:07:13.888Z,98545.78
2023-04-07T16:09:40.432Z,98537.81
2023-04-07T16:12:06.817Z,98538.72
2023-04-07T16:14:33.151Z,98539.53
2023-04-07T16:16:59.575Z,98540.88
2023-04-07T16:19:28.587Z,98544.84
2023-04-07T16:21:54.898Z,98543.34
2023-04-07T16:24:21.331Z,98553.34
2023-04-07T16:26:50.400Z,98549.63
2023-04-07T16:29:17.428Z,98550.75
2023-04-07T16:31:44.369Z,98552.91
2023-04-07T16:34:11.703Z,98552.69
2023-04-07T16:36:38.112Z,98559.94
2023-04-07T16:39:04.430Z,98563.72
2023-04-07T16:41:30.755Z,98560.50
2023-04-07T16:43:57.093Z,98562.16
2023-04-07T16:46:27.308Z,98568.28
2023-04-07T16:48:53.841Z,98567.22
2023-04-07T16:51:20.328Z,98577.38
2023-04-07T16:53:47.027Z,98577.91
2023-04-07T16:56:19.858Z,98574.13
2023-04-07T16:58:46.865Z,98580.56
2023-04-07T17:01:13.495Z,98584.81
2023-04-07T17:03:40.562Z,98588.56
2023-04-07T17:06:07.304Z,98592.59
2023-04-07T17:08:36.592Z,98594.69
2023-04-07T17:11:06.146Z,98604.03
2023-04-07T17:13:32.455Z,98598.72
2023-04-07T17:15:58.821Z,98601.91
2023-04-07T17:18:25.417Z,98603.78
2023-04-07T17:20:54.650Z,98606.44
2023-04-07T17:23:20.974Z,98610.72
2023-04-07T17:25:50.600Z,98619.50
2023-04-07T17:28:16.904Z,98618.47
2023-04-07T17:30:43.259Z,98625.63
2023-04-07T17:33:09.614Z,98625.88
2023-04-07T17:35:36.056Z,98624.81
2023-04-07T17:38:06.676Z,98632.03
2023-04-07T17:40:33.036Z,98639.25
2023-04-07T17:43:00.126Z,98638.19
2023-04-07T17:45:26.456Z,98643.28
2023-04-07T17:47:53.030Z,98643.53
2023-04-07T17:50:19.713Z,98645.13
2023-04-07T17:52:46.128Z,98646.69
2023-04-07T17:55:12.471Z,98645.44
2023-04-07T17:57:38.872Z,98647.94
2023-04-07T18:00:05.854Z,98654.22
2023-04-07T18:02:32.399Z,98654.69
2023-04-07T18:05:01.254Z,98660.31
2023-04-07T18:09:53.852Z,98673.16
2023-04-07T18:12:21.489Z,98666.22
2023-04-07T18:14:47.799Z,98669.19
2023-04-07T18:17:14.098Z,98675.88
2023-04-07T18:19:40.473Z,98682.06
2023-04-07T18:22:06.970Z,98682.06
2023-04-07T18:24:33.805Z,98682.88
2023-04-07T18:27:01.252Z,98682.88
2023-04-07T18:29:27.605Z,98687.44
2023-04-07T18:31:53.985Z,98690.13
2023-04-07T18:34:20.384Z,98691.47
2023-04-07T18:36:47.642Z,98697.09
2023-04-07T18:39:14.121Z,98703.53
2023-04-07T18:41:44.380Z,98702.50
2023-04-07T18:44:11.408Z,98702.75
2023-04-07T18:46:37.964Z,98706.22
2023-04-07T18:49:04.510Z,98710.78
2023-04-07T18:51:31.152Z,98715.31
2023-04-07T18:53:57.513Z,98716.41
2023-04-07T18:56:27.206Z,98723.63
2023-04-07T18:58:53.742Z,98733.00
2023-04-07T19:01:20.205Z,98728.19
2023-04-07T19:03:46.751Z,98732.50
2023-04-07T19:06:13.859Z,98741.06
2023-04-07T19:08:40.250Z,98741.84
2023-04-07T19:11:06.581Z,98742.63
2023-04-07T19:13:32.913Z,98743.22
2023-04-07T19:15:59.325Z,98745.63
2023-04-07T19:18:26.636Z,98752.31
2023-04-07T19:20:52.981Z,98752.31
2023-04-07T19:23:19.325Z,98753.63
2023-04-07T19:25:46.030Z,98758.97
2023-04-07T19:28:12.530Z,98766.22
2023-04-07T19:30:38.837Z,98769.94
2023-04-07T19:33:05.202Z,98773.16
2023-04-07T19:35:32.661Z,98776.09
2023-04-07T19:37:59.282Z,98786.25
2023-04-07T19:40:26.083Z,98780.63
2023-04-07T19:42:54.522Z,98777.66
2023-04-07T19:45:20.844Z,98789.47
2023-04-07T19:47:47.563Z,98787.31
2023-04-07T19:50:17.420Z,98792.41
2023-04-07T19:52:45.212Z,98790.00
2023-04-07T19:55:12.173Z,98791.06
2023-04-07T19:57:40.191Z,98799.88
2023-04-07T20:00:08.682Z,98801.75
2023-04-07T20:02:35.445Z,98801.44
2023-04-07T20:05:01.918Z,98804.13
2023-04-07T20:07:28.234Z,98803.84
2023-04-07T20:09:54.981Z,98798.50
2023-04-07T20:12:21.379Z,98801.16
2023-04-07T20:14:47.694Z,98806.00
2023-04-07T20:17:14.031Z,98805.19
2023-04-07T20:19:40.696Z,98807.06
2023-04-07T20:22:07.090Z,98811.63
2023-04-07T20:24:36.261Z,98806.78
2023-04-07T20:27:02.726Z,98813.22
2023-04-07T20:29:29.062Z,98814.28
2023-04-07T20:31:55.635Z,98816.16
2023-04-07T20:34:22.320Z,98819.38
2023-04-07T20:36:51.654Z,98820.69
2023-04-07T20:39:17.963Z,98817.19
2023-04-07T20:41:45.496Z,98819.63
2023-04-07T20:44:12.122Z,98823.34
2023-04-07T20:46:38.563Z,98828.19
2023-04-07T20:49:07.528Z,98832.19
2023-04-07T20:51:36.024Z,98831.66
2023-04-07T20:54:02.676Z,98836.22
2023-04-07T20:56:29.207Z,98840.03
2023-04-07T20:58:55.532Z,98840.59
2023-04-07T21:01:21.992Z,98839.53
2023-04-07T21:03:48.405Z,98842.22
2023-04-07T21:06:14.778Z,98840.88
2023-04-07T21:08:41.088Z,98845.19
2023-04-07T21:11:07.396Z,98845.19
2023-04-07T21:13:33.705Z,98842.50
2023-04-07T21:16:01.272Z,98838.75
2023-04-07T21:18:27.738Z,98844.09
2023-04-07T21:20:55.814Z,98840.34
2023-04-07T21:23:22.121Z,98843.56
2023-04-07T21:25:48.430Z,98853.72
2023-04-07T21:28:14.781Z,98851.84
2023-04-07T21:30:43.932Z,98852.38
2023-04-07T21:33:11.041Z,98855.31
2023-04-07T21:35:37.387Z,98849.69
2023-04-07T21:38:03.707Z,98859.28
2023-04-07T21:40:30.029Z,98855.00
2023-04-07T21:42:56.647Z,98863.59
2023-04-07T21:45:23.044Z,98856.88
2023-04-07T21:47:49.449Z,98852.56
2023-04-07T21:50:15.791Z,98862.75
2023-04-07T21:52:42.559Z,98863.00
2023-04-07T21:55:10.544Z,98863.00
2023-04-07T21:57:36.929Z,98861.97
2023-04-07T22:00:03.274Z,98856.03
2023-04-07T22:02:29.779Z,98862.41
2023-04-07T22:04:56.296Z,98868.16
2023-04-07T22:07:22.629Z,98855.78
2023-04-07T22:09:48.939Z,98860.88
2023-04-07T22:12:15.407Z,98857.13
2023-04-07T22:14:42.751Z,98865.97
2023-04-07T22:17:09.080Z,98874.81
2023-04-07T22:19:35.562Z,98871.31
2023-04-07T22:22:01.927Z,98866.25
2023-04-07T22:24:28.347Z,98872.94
2023-04-07T22:26:55.347Z,98872.94
2023-04-07T22:29:21.761Z,98873.50
2023-04-07T22:31:48.142Z,98880.47
2023-04-07T22:34:14.497Z,98878.03
2023-04-07T22:36:40.998Z,98880.72
2023-04-07T22:39:08.335Z,98880.72
2023-04-07T22:41:34.664Z,98878.31
2023-04-07T22:44:01.023Z,98874.03
2023-04-07T22:46:27.359Z,98882.09
2023-04-07T22:48:53.789Z,98890.13
2023-04-07T22:51:20.547Z,98893.63
2023-04-07T22:53:46.851Z,98883.16
2023-04-07T22:56:13.171Z,98883.16
2023-04-07T22:58:39.672Z,98883.16
2023-04-07T23:01:06.333Z,98875.13
2023-04-07T23:03:32.812Z,98884.78
2023-04-07T23:06:01.128Z,98883.16
2023-04-07T23:08:27.444Z,98886.91
2023-04-07T23:10:54.012Z,98884.22
2023-04-07T23:13:20.661Z,98887.19
2023-04-07T23:15:47.017Z,98893.94
2023-04-07T23:18:13.380Z,98897.16
2023-04-07T23:20:39.698Z,98890.44
2023-04-07T23:23:06.120Z,98897.69
2023-04-07T23:25:32.458Z,98890.72
2023-04-07T23:27:58.772Z,98903.88
2023-04-07T23:30:25.466Z,98898.50
2023-04-07T23:32:52.053Z,98903.38
2023-04-07T23:35:18.581Z,98898.28
2023-04-07T23:37:45.016Z,98903.09
2023-04-07T23:40:12.430Z,98903.38
2023-04-07T23:42:38.754Z,98898.81
2023-04-07T23:45:05.540Z,98898.31
2023-04-07T23:47:31.910Z,98897.47
2023-04-07T23:49:58.717Z,98908.78
2023-04-07T23:52:25.742Z,98909.03
2023-04-07T23:54:52.089Z,98908.78
2023-04-07T23:57:18.419Z,98909.03
2023-04-07T23:59:44.880Z,98901.56
